createdAt,value
2022-11-16T00:02:07.105Z,100037.16
2022-11-16T00:04:33.715Z,100046.66
2022-11-16T00:07:02.826Z,100038.94
2022-11-16T00:09:32.064Z,100043.22
2022-11-16T00:12:01.680Z,100044.03
2022-11-16T00:14:30.455Z,100044.03
2022-11-16T00:16:57.778Z,100040.59
2022-11-16T00:19:25.440Z,100044.59
2022-11-16T00:21:52.570Z,100046.25
2022-11-16T00:24:20.691Z,100046.25
2022-11-16T00:26:47.888Z,100041.78
2022-11-16T00:29:16.243Z,100045.22
2022-11-16T00:31:42.810Z,100036.28
2022-11-16T00:34:09.288Z,100035.47
2022-11-16T00:36:35.847Z,100043.38
2022-11-16T00:39:02.487Z,100040.75
2022-11-16T00:41:29.095Z,100040.75
2022-11-16T00:43:55.631Z,100034.69
2022-11-16T00:46:22.228Z,100033.66
2022-11-16T00:48:48.705Z,100031.81
2022-11-16T00:51:15.171Z,100025.75
2022-11-16T00:53:41.757Z,100023.91
2022-11-16T00:56:08.268Z,100028.19
2022-11-16T00:58:34.884Z,100025.56
2022-11-16T01:01:09.280Z,100027.97
2022-11-16T01:03:36.469Z,100024.31
2022-11-16T01:06:05.741Z,100023.50
2022-11-16T01:08:33.309Z,100019.50
2022-11-16T01:11:20.129Z,100022.13
2022-11-16T01:13:47.296Z,100019.50
2022-11-16T01:16:18.423Z,100018.66
2022-11-16T01:18:48.935Z,100022.72
2022-11-16T01:21:15.778Z,100010.34
2022-11-16T01:23:42.417Z,100011.13
2022-11-16T01:26:09.098Z,100021.69
2022-11-16T01:28:36.143Z,100012.78
2022-11-16T01:31:02.823Z,100013.59
2022-11-16T01:33:29.510Z,100004.88
2022-11-16T01:35:56.069Z,100011.13
2022-11-16T01:38:27.125Z,100004.06
2022-11-16T01:40:55.943Z,100005.69
2022-11-16T01:43:27.173Z,99999.59
2022-11-16T01:45:54.030Z,100007.50
2022-11-16T01:48:25.946Z,100003.03
2022-11-16T01:50:56.293Z,100003.03
2022-11-16T01:53:24.565Z,100007.50
2022-11-16T01:55:52.023Z,100001.44
2022-11-16T01:58:21.149Z,100003.03
2022-11-16T02:00:49.112Z,99997.53
2022-11-16T02:03:20.220Z,99992.09
2022-11-16T02:05:55.816Z,99995.72
2022-11-16T02:09:01.321Z,99993.91
2022-11-16T02:12:01.303Z,99987.63
2022-11-16T02:14:47.801Z,99980.53
2022-11-16T02:17:28.964Z,99983.97
2022-11-16T02:20:33.058Z,99978.69
2022-11-16T02:23:27.432Z,99963.91
2022-11-16T02:26:01.100Z,99969.38
2022-11-16T02:28:46.028Z,99974.44
2022-11-16T02:31:17.373Z,99978.91
2022-11-16T02:33:46.810Z,99975.25
2022-11-16T02:36:18.782Z,99968.94
2022-11-16T02:39:04.143Z,99972.63
2022-11-16T02:41:35.050Z,99965.50
2022-11-16T02:44:25.409Z,99962.88
2022-11-16T02:46:56.930Z,99969.75
2022-11-16T02:49:25.275Z,99965.28
2022-11-16T02:51:53.076Z,99970.38
2022-11-16T02:54:21.647Z,99965.09
2022-11-16T02:56:56.097Z,99967.13
2022-11-16T02:59:24.982Z,99965.50
2022-11-16T03:02:00.476Z,99970.38
2022-11-16T03:04:33.909Z,99968.94
2022-11-16T03:07:03.776Z,99957.59
2022-11-16T03:09:34.133Z,99971.16
2022-11-16T03:12:05.852Z,99971.16
2022-11-16T03:14:38.357Z,99962.66
2022-11-16T03:17:10.653Z,99965.09
2022-11-16T03:19:44.065Z,99978.28
2022-11-16T03:22:26.546Z,99973.81
2022-11-16T03:24:53.575Z,99980.09
2022-11-16T03:27:55.006Z,99977.66
2022-11-16T03:30:24.285Z,99985.56
2022-11-16T03:33:00.429Z,99978.69
2022-11-16T03:35:32.649Z,99972.84
2022-11-16T03:38:01.712Z,99978.09
2022-11-16T03:40:31.786Z,99980.13
2022-11-16T03:43:01.144Z,99974.88
2022-11-16T03:45:28.776Z,99977.91
2022-11-16T03:47:55.247Z,99987.44
2022-11-16T03:50:21.823Z,99987.88
2022-11-16T03:52:48.484Z,99991.31
2022-11-16T03:55:15.102Z,99994.13
2022-11-16T03:57:41.603Z,99990.69
2022-11-16T04:00:09.548Z,99987.47
2022-11-16T04:02:36.067Z,99991.91
2022-11-16T04:05:32.027Z,99995.56
2022-11-16T04:08:17.252Z,99998.44
2022-11-16T04:11:03.172Z,99999.44
2022-11-16T04:13:50.633Z,99994.38
2022-11-16T04:16:35.802Z,99999.06
2022-11-16T04:19:20.997Z,100007.16
2022-11-16T04:22:11.009Z,100004.13
2022-11-16T04:24:41.848Z,100002.53
2022-11-16T04:27:32.753Z,99993.22
2022-11-16T04:30:01.142Z,99998.09
2022-11-16T04:32:46.240Z,100004.16
2022-11-16T04:35:31.510Z,99998.50
2022-11-16T04:37:59.326Z,100002.16
2022-11-16T04:40:30.390Z,100009.66
2022-11-16T04:43:01.716Z,100014.34
2022-11-16T04:45:46.770Z,100013.72
2022-11-16T04:48:15.337Z,100018.38
2022-11-16T04:50:43.574Z,100009.91
2022-11-16T04:53:10.643Z,100014.16
2022-11-16T04:55:37.520Z,100018.22
2022-11-16T04:58:04.994Z,100016.00
2022-11-16T05:00:32.280Z,100014.59
2022-11-16T05:03:01.572Z,100020.28
2022-11-16T05:05:28.524Z,100014.78
2022-11-16T05:07:55.015Z,100017.66
2022-11-16T05:10:21.571Z,100024.13
2022-11-16T05:12:48.064Z,100013.19
2022-11-16T05:15:14.556Z,100024.75
2022-11-16T05:17:41.019Z,100033.81
2022-11-16T05:20:26.866Z,100034.44
2022-11-16T05:22:57.598Z,100035.66
2022-11-16T05:25:24.344Z,100036.69
2022-11-16T05:27:50.859Z,100039.53
2022-11-16T05:30:17.909Z,100034.25
2022-11-16T05:32:44.678Z,100032.84
2022-11-16T05:35:11.120Z,100034.84
2022-11-16T05:37:37.581Z,100034.25
2022-11-16T05:40:04.842Z,100041.53
2022-11-16T05:42:31.468Z,100034.03
2022-11-16T05:44:57.973Z,100038.50
2022-11-16T05:47:24.473Z,100046.59
2022-11-16T05:49:50.904Z,100058.97
2022-11-16T05:52:17.424Z,100056.50
2022-11-16T05:54:43.875Z,100057.53
2022-11-16T05:57:10.504Z,100060.56
2022-11-16T05:59:37.052Z,100069.25
2022-11-16T06:02:04.835Z,100063.00
2022-11-16T06:04:32.456Z,100066.84
2022-11-16T06:06:59.115Z,100062.78
2022-11-16T06:09:25.659Z,100064.03
2022-11-16T06:11:52.228Z,100056.31
2022-11-16T06:14:18.835Z,100056.31
2022-11-16T06:16:45.903Z,100054.28
2022-11-16T06:19:12.362Z,100051.84
2022-11-16T06:21:38.856Z,100059.16
2022-11-16T06:24:08.961Z,100062.00
2022-11-16T06:26:36.321Z,100054.69
2022-11-16T06:29:03.248Z,100057.31
2022-11-16T06:31:30.076Z,100051.88
2022-11-16T06:33:56.681Z,100054.66
2022-11-16T06:36:23.190Z,100054.88
2022-11-16T06:38:49.807Z,100060.53
2022-11-16T06:41:16.412Z,100062.38
2022-11-16T06:43:42.870Z,100061.78
2022-11-16T06:46:09.371Z,100064.00
2022-11-16T06:48:36.243Z,100077.53
2022-11-16T06:51:03.024Z,100077.28
2022-11-16T06:53:29.783Z,100078.53
2022-11-16T06:56:01.133Z,100077.91
2022-11-16T06:58:30.325Z,100083.13
2022-11-16T07:00:57.607Z,100089.63
2022-11-16T07:03:24.232Z,100090.81
2022-11-16T07:05:50.807Z,100082.31
2022-11-16T07:08:17.302Z,100081.28
2022-11-16T07:10:43.762Z,100089.78
2022-11-16T07:13:10.307Z,100097.84
2022-11-16T07:15:36.857Z,100100.03
2022-11-16T07:18:05.578Z,100104.50
2022-11-16T07:20:32.698Z,100102.47
2022-11-16T07:23:00.932Z,100101.63
2022-11-16T07:25:27.569Z,100112.50
2022-11-16T07:27:54.059Z,100111.88
2022-11-16T07:30:20.558Z,100110.47
2022-11-16T07:32:47.016Z,100114.91
2022-11-16T07:35:13.527Z,100116.72
2022-11-16T07:37:39.985Z,100125.97
2022-11-16T07:40:07.224Z,100124.75
2022-11-16T07:42:33.731Z,100130.00
2022-11-16T07:45:00.189Z,100136.06
2022-11-16T07:47:26.659Z,100128.38
2022-11-16T07:49:53.218Z,100146.78
2022-11-16T07:52:19.642Z,100138.25
2022-11-16T07:54:46.177Z,100149.59
2022-11-16T07:57:12.651Z,100150.78
2022-11-16T07:59:39.141Z,100157.66
2022-11-16T08:02:05.808Z,100149.78
2022-11-16T08:04:32.399Z,100163.72
2022-11-16T08:06:58.935Z,100163.13
2022-11-16T08:09:25.428Z,100173.63
2022-11-16T08:11:51.961Z,100173.63
2022-11-16T08:14:19.235Z,100175.44
2022-11-16T08:16:46.155Z,100178.88
2022-11-16T08:19:12.889Z,100187.72
2022-11-16T08:21:39.425Z,100189.16
2022-11-16T08:24:06.246Z,100189.16
2022-11-16T08:26:32.705Z,100187.56
2022-11-16T08:28:59.301Z,100181.50
2022-11-16T08:31:27.841Z,100184.94
2022-11-16T08:33:54.842Z,100192.59
2022-11-16T08:36:21.628Z,100185.16
2022-11-16T08:38:49.928Z,100183.16
2022-11-16T08:41:17.796Z,100179.53
2022-11-16T08:43:47.027Z,100184.38
2022-11-16T08:46:14.244Z,100186.00
2022-11-16T08:48:40.858Z,100188.47
2022-11-16T08:51:17.868Z,100188.88
2022-11-16T08:53:45.457Z,100192.53
2022-11-16T08:56:13.709Z,100200.25
2022-11-16T08:58:46.770Z,100188.72
2022-11-16T09:01:19.706Z,100193.16
2022-11-16T09:03:46.470Z,100192.78
2022-11-16T09:06:13.534Z,100192.19
2022-11-16T09:08:41.785Z,100193.44
2022-11-16T09:11:11.785Z,100204.75
2022-11-16T09:13:38.414Z,100199.91
2022-11-16T09:16:05.783Z,100197.94
2022-11-16T09:18:33.031Z,100193.09
2022-11-16T09:20:59.866Z,100196.75
2022-11-16T09:23:26.494Z,100193.91
2022-11-16T09:25:54.604Z,100207.28
2022-11-16T09:28:22.205Z,100207.06
2022-11-16T09:30:50.948Z,100205.28
2022-11-16T09:33:17.576Z,100211.78
2022-11-16T09:35:44.144Z,100204.72
2022-11-16T09:38:12.739Z,100213.66
2022-11-16T09:40:46.144Z,100212.28
2022-11-16T09:43:57.845Z,100216.38
2022-11-16T09:46:39.682Z,100227.53
2022-11-16T09:49:25.972Z,100217.22
2022-11-16T09:51:58.100Z,100223.28
2022-11-16T09:54:28.801Z,100217.22
2022-11-16T09:56:59.961Z,100219.22
2022-11-16T09:59:41.179Z,100220.84
2022-11-16T10:02:25.286Z,100220.25
2022-11-16T10:05:00.837Z,100225.94
2022-11-16T10:07:41.770Z,100216.00
2022-11-16T10:10:30.252Z,100226.34
2022-11-16T10:13:18.578Z,100213.19
2022-11-16T10:16:18.453Z,100212.78
2022-11-16T10:18:50.981Z,100214.59
2022-11-16T10:21:33.019Z,100220.88
2022-11-16T10:24:14.608Z,100214.78
2022-11-16T10:26:56.515Z,100211.78
2022-11-16T10:30:01.602Z,100209.13
2022-11-16T10:32:29.563Z,100215.22
2022-11-16T10:35:03.378Z,100210.97
2022-11-16T10:37:32.313Z,100223.72
2022-11-16T10:39:58.940Z,100215.41
2022-11-16T10:42:39.207Z,100213.41
2022-11-16T10:45:11.436Z,100205.09
2022-11-16T10:47:44.801Z,100208.16
2022-11-16T10:50:36.124Z,100219.31
2022-11-16T10:53:02.768Z,100210.59
2022-11-16T10:55:29.402Z,100215.47
2022-11-16T10:58:04.485Z,100220.13
2022-11-16T11:00:36.964Z,100221.34
2022-11-16T11:03:03.868Z,100219.72
2022-11-16T11:05:30.990Z,100210.59
2022-11-16T11:08:02.400Z,100211.63
2022-11-16T11:10:36.437Z,100206.56
2022-11-16T11:13:11.167Z,100214.06
2022-11-16T11:15:42.485Z,100211.81
2022-11-16T11:18:21.546Z,100215.84
2022-11-16T11:20:52.145Z,100212.63
2022-11-16T11:23:24.138Z,100208.00
2022-11-16T11:25:59.302Z,100206.38
2022-11-16T11:28:32.516Z,100211.44
2022-11-16T11:31:03.860Z,100189.72
2022-11-16T11:33:38.006Z,100191.56
2022-11-16T11:36:06.835Z,100190.53
2022-11-16T11:38:35.760Z,100184.84
2022-11-16T11:41:05.222Z,100180.22
2022-11-16T11:43:34.301Z,100183.03
2022-11-16T11:46:13.908Z,100175.72
2022-11-16T11:48:53.258Z,100176.50
2022-11-16T11:51:27.581Z,100167.78
2022-11-16T11:54:02.795Z,100163.94
2022-11-16T11:56:32.038Z,100159.28
2022-11-16T11:58:58.653Z,100158.84
2022-11-16T12:01:40.475Z,100160.88
2022-11-16T12:04:28.314Z,100166.41
2022-11-16T12:07:17.841Z,100173.91
2022-11-16T12:10:16.387Z,100173.28
2022-11-16T12:13:13.294Z,100172.25
2022-11-16T12:15:55.683Z,100176.50
2022-11-16T12:18:40.912Z,100168.00
2022-11-16T12:21:17.956Z,100169.19
2022-11-16T12:24:06.339Z,100178.50
2022-11-16T12:26:32.932Z,100169.81
2022-11-16T12:29:19.718Z,100170.81
2022-11-16T12:31:59.150Z,100172.25
2022-11-16T12:35:07.643Z,100174.63
2022-11-16T12:37:56.843Z,100174.38
2022-11-16T12:41:10.472Z,100170.13
2022-11-16T12:43:44.614Z,100166.22
2022-11-16T12:46:29.345Z,100158.72
2022-11-16T12:49:32.814Z,100157.59
2022-11-16T12:52:23.725Z,100145.53
2022-11-16T12:55:27.969Z,100141.59
2022-11-16T12:58:00.533Z,100146.03
2022-11-16T13:00:29.756Z,100142.25
2022-11-16T13:03:12.188Z,100143.09
2022-11-16T13:06:03.505Z,100129.50
2022-11-16T13:08:47.089Z,100135.63
2022-11-16T13:11:16.355Z,100134.84
2022-11-16T13:13:51.515Z,100141.94
2022-11-16T13:16:21.221Z,100135.06
2022-11-16T13:18:48.179Z,100134.41
2022-11-16T13:21:32.777Z,100128.31
2022-11-16T13:24:18.624Z,100129.34
2022-11-16T13:26:56.408Z,100124.31
2022-11-16T13:29:43.219Z,100122.66
2022-11-16T13:32:19.630Z,100124.88
2022-11-16T13:34:47.108Z,100120.63
2022-11-16T13:37:39.899Z,100131.59
2022-11-16T13:40:06.325Z,100131.59
2022-11-16T13:42:58.486Z,100126.16
2022-11-16T13:45:28.004Z,100126.97
2022-11-16T13:47:58.071Z,100118.31
2022-11-16T13:50:37.481Z,100122.25
2022-11-16T13:56:07.798Z,100114.47
2022-11-16T13:58:37.461Z,100107.59
2022-11-16T14:01:10.955Z,100106.38
2022-11-16T14:03:42.832Z,100097.28
2022-11-16T14:06:24.471Z,100103.56
2022-11-16T14:08:55.451Z,100096.88
2022-11-16T14:11:36.690Z,100098.53
2022-11-16T14:14:24.387Z,100105.19
2022-11-16T14:16:51.675Z,100094.00
2022-11-16T14:19:44.637Z,100086.72
2022-11-16T14:22:41.460Z,100084.25
2022-11-16T14:25:26.790Z,100083.28
2022-11-16T14:28:15.118Z,100086.16
2022-11-16T14:31:09.832Z,100083.38
2022-11-16T14:33:38.013Z,100075.47
2022-11-16T14:36:07.877Z,100085.22
2022-11-16T14:38:38.452Z,100089.06
2022-11-16T14:41:07.304Z,100088.28
2022-11-16T14:43:44.451Z,100077.16
2022-11-16T14:46:19.967Z,100074.91
2022-11-16T14:48:47.337Z,100071.03
2022-11-16T14:51:20.453Z,100058.66
2022-11-16T14:53:52.485Z,100058.25
2022-11-16T14:56:19.692Z,100063.69
2022-11-16T14:59:02.014Z,100056.66
2022-11-16T15:01:35.818Z,100058.25
2022-11-16T15:04:06.041Z,100050.19
2022-11-16T15:06:40.799Z,100052.22
2022-11-16T15:09:07.674Z,100049.00
2022-11-16T15:11:57.755Z,100046.59
2022-11-16T15:14:29.632Z,100044.56
2022-11-16T15:16:59.040Z,100042.16
2022-11-16T15:19:28.588Z,100037.91
2022-11-16T15:21:58.358Z,100034.66
2022-11-16T15:24:31.557Z,100030.03
2022-11-16T15:27:26.736Z,100030.81
2022-11-16T15:29:53.498Z,100022.91
2022-11-16T15:32:20.095Z,100017.47
2022-11-16T15:34:51.675Z,100021.53
2022-11-16T15:37:30.981Z,100016.25
2022-11-16T15:39:59.121Z,100019.72
2022-11-16T15:42:27.926Z,100016.84
2022-11-16T15:44:55.744Z,100017.47
2022-11-16T15:47:23.084Z,100006.34
2022-11-16T15:49:52.935Z,100001.88
2022-11-16T15:52:43.805Z,100000.03
2022-11-16T15:55:24.403Z,99978.00
2022-11-16T15:58:00.996Z,99973.34
2022-11-16T16:00:28.959Z,99975.97
2022-11-16T16:03:04.661Z,99981.78
2022-11-16T16:05:36.836Z,99975.72
2022-11-16T16:08:04.206Z,99977.94
2022-11-16T16:10:30.874Z,99964.38
2022-11-16T16:12:59.691Z,99949.03
2022-11-16T16:15:33.765Z,99953.84
2022-11-16T16:18:01.704Z,99971.44
2022-11-16T16:20:30.811Z,99976.88
2022-11-16T16:23:15.206Z,99970.22
2022-11-16T16:25:46.034Z,99978.25
2022-11-16T16:28:16.584Z,99972.81
2022-11-16T16:30:43.158Z,99968.38
2022-11-16T16:33:18.912Z,99972.38
2022-11-16T16:35:49.622Z,99963.47
2022-11-16T16:38:16.204Z,99957.41
2022-11-16T16:40:42.711Z,99954.38
2022-11-16T16:43:09.180Z,99953.94
2022-11-16T16:45:38.760Z,99952.34
2022-11-16T16:48:06.261Z,99954.34
2022-11-16T16:50:33.001Z,99950.31
2022-11-16T16:52:59.462Z,99944.06
2022-11-16T16:55:26.249Z,99940.41
2022-11-16T16:57:56.526Z,99951.28
2022-11-16T17:00:23.451Z,99941.38
2022-11-16T17:02:50.015Z,99936.13
2022-11-16T17:05:16.608Z,99939.78
2022-11-16T17:07:43.090Z,99930.44
2022-11-16T17:10:09.862Z,99928.84
2022-11-16T17:12:36.467Z,99925.41
2022-11-16T17:15:03.425Z,99927.22
2022-11-16T17:17:29.925Z,99932.22
2022-11-16T17:19:56.441Z,99926.00
2022-11-16T17:22:22.987Z,99923.56
2022-11-16T17:24:49.453Z,99923.56
2022-11-16T17:27:16.009Z,99916.28
2022-11-16T17:29:42.531Z,99925.34
2022-11-16T17:32:09.057Z,99924.72
2022-11-16T17:34:35.702Z,99916.63
2022-11-16T17:37:02.127Z,99917.63
2022-11-16T17:39:28.603Z,99920.63
2022-11-16T17:41:55.220Z,99921.81
2022-11-16T17:44:22.353Z,99924.03
2022-11-16T17:46:49.351Z,99925.25
2022-11-16T17:49:15.779Z,99916.75
2022-11-16T17:51:42.677Z,99907.25
2022-11-16T17:54:09.172Z,99904.00
2022-11-16T17:56:35.666Z,99906.03
2022-11-16T17:59:02.122Z,99907.84
2022-11-16T18:01:28.747Z,99905.59
2022-11-16T18:03:55.488Z,99900.75
2022-11-16T18:06:24.073Z,99890.63
2022-11-16T18:08:51.522Z,99896.69
2022-11-16T18:11:21.053Z,99900.16
2022-11-16T18:13:51.420Z,99890.47
2022-11-16T18:16:21.023Z,99896.94
2022-11-16T18:18:48.519Z,99894.09
2022-11-16T18:21:20.768Z,99885.06
2022-11-16T18:23:47.873Z,99889.91
2022-11-16T18:26:17.153Z,99882.28
2022-11-16T18:28:48.129Z,99884.13
2022-11-16T18:31:17.075Z,99888.56
2022-11-16T18:33:43.978Z,99891.63
2022-11-16T18:36:12.132Z,99891.06
2022-11-16T18:38:38.896Z,99887.41
2022-11-16T18:41:12.351Z,99892.44
2022-11-16T18:43:48.501Z,99885.38
2022-11-16T18:46:15.255Z,99885.59
2022-11-16T18:48:42.840Z,99877.31
2022-11-16T18:51:10.571Z,99873.88
2022-11-16T18:53:37.999Z,99873.66
2022-11-16T18:56:05.374Z,99860.75
2022-11-16T19:01:20.467Z,99853.28
2022-11-16T19:03:46.981Z,99858.09
2022-11-16T19:06:15.614Z,99859.94
2022-11-16T19:08:44.182Z,99840.94
2022-11-16T19:11:13.847Z,99843.78
2022-11-16T19:13:42.234Z,99850.63
2022-11-16T19:16:10.357Z,99830.66
2022-11-16T19:18:36.928Z,99831.47
2022-11-16T19:21:09.012Z,99820.78
2022-11-16T19:23:37.782Z,99809.69
2022-11-16T19:26:05.185Z,99799.81
2022-11-16T19:28:35.751Z,99789.91
2022-11-16T19:31:29.454Z,99785.88
2022-11-16T19:33:58.301Z,99785.50
2022-11-16T19:36:25.870Z,99771.19
2022-11-16T19:38:52.882Z,99774.41
2022-11-16T19:41:23.210Z,99765.13
2022-11-16T19:43:57.351Z,99769.19
2022-11-16T19:46:27.268Z,99754.44
2022-11-16T19:48:54.906Z,99751.19
2022-11-16T19:51:30.133Z,99747.16
2022-11-16T19:53:59.164Z,99742.53
2022-11-16T19:56:25.710Z,99738.91
2022-11-16T19:58:52.257Z,99736.91
2022-11-16T20:01:36.925Z,99726.63
2022-11-16T20:04:03.929Z,99728.66
2022-11-16T20:06:33.167Z,99724.81
2022-11-16T20:09:04.126Z,99716.94
2022-11-16T20:11:33.727Z,99704.84
2022-11-16T20:14:01.380Z,99696.97
2022-11-16T20:16:37.005Z,99702.81
2022-11-16T20:19:05.351Z,99696.16
2022-11-16T20:21:35.112Z,99686.66
2022-11-16T20:24:06.867Z,99680.44
2022-11-16T20:26:34.997Z,99689.28
2022-11-16T20:29:01.668Z,99692.72
2022-11-16T20:31:30.680Z,99696.94
2022-11-16T20:34:05.512Z,99693.53
2022-11-16T20:36:33.094Z,99690.09
2022-11-16T20:39:00.492Z,99685.66
2022-11-16T20:41:29.562Z,99677.59
2022-11-16T20:43:58.281Z,99671.72
2022-11-16T20:46:27.210Z,99671.31
2022-11-16T20:48:55.852Z,99661.22
2022-11-16T20:51:22.867Z,99649.09
2022-11-16T20:53:50.090Z,99653.34
2022-11-16T20:56:19.267Z,99642.22
2022-11-16T20:58:47.083Z,99631.72
2022-11-16T21:01:16.638Z,99643.03
2022-11-16T21:03:44.613Z,99633.31
2022-11-16T21:06:14.999Z,99636.16
2022-11-16T21:08:41.714Z,99631.13
2022-11-16T21:11:17.163Z,99632.53
2022-11-16T21:14:03.634Z,99619.38
2022-11-16T21:16:30.465Z,99604.44
2022-11-16T21:18:57.156Z,99596.38
2022-11-16T21:21:25.219Z,99589.50
2022-11-16T21:23:52.297Z,99585.06
2022-11-16T21:26:24.003Z,99583.03
2022-11-16T21:28:50.519Z,99580.00
2022-11-16T21:31:19.867Z,99569.72
2022-11-16T21:33:47.393Z,99563.03
2022-11-16T21:36:17.129Z,99557.56
2022-11-16T21:38:43.986Z,99559.78
2022-11-16T21:41:11.928Z,99546.66
2022-11-16T21:43:41.819Z,99541.63
2022-11-16T21:46:12.086Z,99529.50
2022-11-16T21:48:41.755Z,99533.13
2022-11-16T21:51:10.961Z,99518.41
2022-11-16T21:53:38.746Z,99513.34
2022-11-16T21:56:07.008Z,99506.50
2022-11-16T21:58:33.888Z,99509.13
2022-11-16T22:01:02.305Z,99488.34
2022-11-16T22:03:30.645Z,99491.53
2022-11-16T22:06:20.891Z,99486.28
2022-11-16T22:08:47.882Z,99475.59
2022-11-16T22:11:15.576Z,99478.00
2022-11-16T22:13:43.126Z,99474.97
2022-11-16T22:16:11.976Z,99464.69
2022-11-16T22:18:39.266Z,99463.84
2022-11-16T22:21:06.214Z,99449.94
2022-11-16T22:23:33.301Z,99444.66
2022-11-16T22:26:04.761Z,99444.06
2022-11-16T22:28:32.703Z,99427.28
2022-11-16T22:31:12.814Z,99422.84
2022-11-16T22:33:40.167Z,99411.31
2022-11-16T22:36:09.298Z,99404.84
2022-11-16T22:38:36.486Z,99403.81
2022-11-16T22:41:03.478Z,99382.81
2022-11-16T22:43:31.314Z,99376.97
2022-11-16T22:45:58.938Z,99382.81
2022-11-16T22:48:45.052Z,99365.03
2022-11-16T22:51:16.831Z,99364.22
2022-11-16T22:53:43.257Z,99363.78
2022-11-16T22:56:10.753Z,99352.84
2022-11-16T22:58:38.334Z,99344.78
2022-11-16T23:01:07.471Z,99340.50
2022-11-16T23:03:34.641Z,99327.38
2022-11-16T23:06:01.950Z,99323.16
2022-11-16T23:08:28.673Z,99309.84
2022-11-16T23:11:20.447Z,99312.66
2022-11-16T23:14:06.213Z,99300.56
2022-11-16T23:16:33.275Z,99292.66
2022-11-16T23:19:00.275Z,99284.00
2022-11-16T23:21:45.840Z,99287.63
2022-11-16T23:24:32.812Z,99279.75
2022-11-16T23:27:21.231Z,99267.63
2022-11-16T23:29:47.862Z,99272.09
2022-11-16T23:32:14.346Z,99263.41
2022-11-16T23:34:40.823Z,99259.19
2022-11-16T23:37:07.945Z,99257.34
2022-11-16T23:39:34.456Z,99241.81
2022-11-16T23:42:19.695Z,99238.38
2022-11-16T23:44:46.320Z,99218.16
2022-11-16T23:47:12.967Z,99209.50
2022-11-16T23:49:39.489Z,99201.63
2022-11-16T23:52:06.006Z,99177.97
2022-11-16T23:54:32.479Z,99168.50
2022-11-16T23:56:59.134Z,99155.38
2022-11-16T23:59:25.635Z,99149.34
